sensor_id;sensor_type;location;lat;lon;timestamp;P1;durP1;ratioP1;P2;durP2;ratioP2
72924;SDS011;61070;50.794;7.054;2022-09-12T00:00:04;31.20;;;19.73;;
72924;SDS011;61070;50.794;7.054;2022-09-12T00:02:30;38.63;;;19.63;;
72924;SDS011;61070;50.794;7.054;2022-09-12T00:04:56;35.85;;;19.80;;
72924;SDS011;61070;50.794;7.054;2022-09-12T00:07:21;35.22;;;20.05;;
72924;SDS011;61070;50.794;7.054;2022-09-12T00:09:46;32.42;;;18.98;;
72924;SDS011;61070;50.794;7.054;2022-09-12T00:12:12;31.15;;;18.65;;
72924;SDS011;61070;50.794;7.054;2022-09-12T00:14:37;38.50;;;20.65;;
72924;SDS011;61070;50.794;7.054;2022-09-12T00:17:02;34.55;;;18.40;;
72924;SDS011;61070;50.794;7.054;2022-09-12T00:19:28;36.50;;;19.20;;
72924;SDS011;61070;50.794;7.054;2022-09-12T00:21:53;37.53;;;19.75;;
72924;SDS011;61070;50.794;7.054;2022-09-12T00:24:19;35.03;;;19.00;;
72924;SDS011;61070;50.794;7.054;2022-09-12T00:26:45;36.10;;;18.40;;
72924;SDS011;61070;50.794;7.054;2022-09-12T00:29:17;33.17;;;19.25;;
72924;SDS011;61070;50.794;7.054;2022-09-12T00:31:45;39.35;;;19.60;;
72924;SDS011;61070;50.794;7.054;2022-09-12T00:34:11;36.50;;;19.55;;
72924;SDS011;61070;50.794;7.054;2022-09-12T00:36:37;34.40;;;18.67;;
72924;SDS011;61070;50.794;7.054;2022-09-12T00:39:03;35.40;;;19.92;;
72924;SDS011;61070;50.794;7.054;2022-09-12T00:41:29;39.42;;;19.80;;
72924;SDS011;61070;50.794;7.054;2022-09-12T00:44:02;34.10;;;19.13;;
72924;SDS011;61070;50.794;7.054;2022-09-12T00:46:48;42.15;;;19.90;;
72924;SDS011;61070;50.794;7.054;2022-09-12T00:49:35;40.20;;;18.25;;
72924;SDS011;61070;50.794;7.054;2022-09-12T00:52:15;32.97;;;18.13;;
72924;SDS011;61070;50.794;7.054;2022-09-12T00:54:45;34.03;;;17.98;;
72924;SDS011;61070;50.794;7.054;2022-09-12T00:57:17;34.92;;;18.58;;
72924;SDS011;61070;50.794;7.054;2022-09-12T00:59:55;35.47;;;18.85;;
72924;SDS011;61070;50.794;7.054;2022-09-12T01:02:23;40.50;;;20.25;;
72924;SDS011;61070;50.794;7.054;2022-09-12T01:04:49;32.85;;;18.15;;
72924;SDS011;61070;50.794;7.054;2022-09-12T01:07:15;36.75;;;19.40;;
72924;SDS011;61070;50.794;7.054;2022-09-12T01:09:41;34.30;;;20.08;;
72924;SDS011;61070;50.794;7.054;2022-09-12T01:12:08;39.58;;;19.38;;
72924;SDS011;61070;50.794;7.054;2022-09-12T01:14:35;36.00;;;18.35;;
72924;SDS011;61070;50.794;7.054;2022-09-12T01:17:00;38.00;;;20.58;;
72924;SDS011;61070;50.794;7.054;2022-09-12T01:30:50;39.03;;;19.02;;
72924;SDS011;61070;50.794;7.054;2022-09-12T01:38:47;35.15;;;18.40;;
72924;SDS011;61070;50.794;7.054;2022-09-12T01:41:27;42.72;;;19.50;;
72924;SDS011;61070;50.794;7.054;2022-09-12T01:46:53;38.00;;;18.00;;
72924;SDS011;61070;50.794;7.054;2022-09-12T01:49:31;33.38;;;19.85;;
72924;SDS011;61070;50.794;7.054;2022-09-12T01:57:39;35.88;;;19.67;;
72924;SDS011;61070;50.794;7.054;2022-09-12T02:00:09;37.20;;;19.08;;
72924;SDS011;61070;50.794;7.054;2022-09-12T02:02:37;40.95;;;19.35;;
72924;SDS011;61070;50.794;7.054;2022-09-12T02:05:15;31.10;;;17.38;;
72924;SDS011;61070;50.794;7.054;2022-09-12T02:07:54;35.03;;;18.35;;
72924;SDS011;61070;50.794;7.054;2022-09-12T02:10:30;32.50;;;17.25;;
72924;SDS011;61070;50.794;7.054;2022-09-12T02:13:11;31.52;;;17.15;;
72924;SDS011;61070;50.794;7.054;2022-09-12T02:15:45;32.70;;;18.43;;
72924;SDS011;61070;50.794;7.054;2022-09-12T02:18:15;32.75;;;17.35;;
72924;SDS011;61070;50.794;7.054;2022-09-12T02:20:44;33.42;;;17.70;;
72924;SDS011;61070;50.794;7.054;2022-09-12T02:23:24;34.22;;;17.67;;
72924;SDS011;61070;50.794;7.054;2022-09-12T02:25:53;35.75;;;17.25;;
72924;SDS011;61070;50.794;7.054;2022-09-12T02:28:55;29.50;;;17.70;;
72924;SDS011;61070;50.794;7.054;2022-09-12T02:38:55;35.90;;;17.95;;
72924;SDS011;61070;50.794;7.054;2022-09-12T02:41:20;34.40;;;17.65;;
72924;SDS011;61070;50.794;7.054;2022-09-12T02:43:47;36.17;;;17.90;;
72924;SDS011;61070;50.794;7.054;2022-09-12T02:46:19;30.15;;;17.15;;
72924;SDS011;61070;50.794;7.054;2022-09-12T02:48:47;34.33;;;16.75;;
72924;SDS011;61070;50.794;7.054;2022-09-12T02:51:12;33.17;;;17.23;;
72924;SDS011;61070;50.794;7.054;2022-09-12T02:53:38;29.55;;;16.17;;
72924;SDS011;61070;50.794;7.054;2022-09-12T02:56:04;32.40;;;17.13;;
72924;SDS011;61070;50.794;7.054;2022-09-12T03:06:28;33.90;;;16.55;;
72924;SDS011;61070;50.794;7.054;2022-09-12T03:17:43;29.58;;;16.80;;
72924;SDS011;61070;50.794;7.054;2022-09-12T03:23:18;30.40;;;16.02;;
72924;SDS011;61070;50.794;7.054;2022-09-12T03:25:48;33.38;;;16.70;;
72924;SDS011;61070;50.794;7.054;2022-09-12T03:28:18;35.42;;;17.25;;
72924;SDS011;61070;50.794;7.054;2022-09-12T03:30:47;32.08;;;16.48;;
72924;SDS011;61070;50.794;7.054;2022-09-12T03:33:16;29.10;;;16.13;;
72924;SDS011;61070;50.794;7.054;2022-09-12T03:35:43;37.65;;;17.67;;
72924;SDS011;61070;50.794;7.054;2022-09-12T03:38:10;35.50;;;16.27;;
72924;SDS011;61070;50.794;7.054;2022-09-12T03:40:35;29.33;;;16.05;;
72924;SDS011;61070;50.794;7.054;2022-09-12T03:43:02;27.23;;;16.67;;
72924;SDS011;61070;50.794;7.054;2022-09-12T03:45:28;32.28;;;16.65;;
72924;SDS011;61070;50.794;7.054;2022-09-12T03:47:54;35.40;;;16.90;;
72924;SDS011;61070;50.794;7.054;2022-09-12T03:50:19;28.55;;;15.40;;
72924;SDS011;61070;50.794;7.054;2022-09-12T03:52:44;27.73;;;16.15;;
72924;SDS011;61070;50.794;7.054;2022-09-12T03:55:10;32.67;;;16.00;;
72924;SDS011;61070;50.794;7.054;2022-09-12T03:57:35;27.60;;;15.82;;
72924;SDS011;61070;50.794;7.054;2022-09-12T04:00:01;38.85;;;15.82;;
72924;SDS011;61070;50.794;7.054;2022-09-12T04:02:27;26.58;;;14.82;;
72924;SDS011;61070;50.794;7.054;2022-09-12T04:04:53;27.02;;;15.65;;
72924;SDS011;61070;50.794;7.054;2022-09-12T04:07:18;32.70;;;15.82;;
72924;SDS011;61070;50.794;7.054;2022-09-12T04:09:44;35.80;;;17.30;;
72924;SDS011;61070;50.794;7.054;2022-09-12T04:12:09;29.42;;;16.42;;
72924;SDS011;61070;50.794;7.054;2022-09-12T04:14:35;31.23;;;15.63;;
72924;SDS011;61070;50.794;7.054;2022-09-12T04:17:00;30.80;;;16.15;;
72924;SDS011;61070;50.794;7.054;2022-09-12T04:19:25;27.75;;;15.77;;
72924;SDS011;61070;50.794;7.054;2022-09-12T04:21:51;31.73;;;15.27;;
72924;SDS011;61070;50.794;7.054;2022-09-12T04:24:17;32.72;;;16.27;;
72924;SDS011;61070;50.794;7.054;2022-09-12T04:26:42;28.75;;;15.57;;
72924;SDS011;61070;50.794;7.054;2022-09-12T04:29:09;34.10;;;15.73;;
72924;SDS011;61070;50.794;7.054;2022-09-12T04:31:35;31.38;;;15.60;;
72924;SDS011;61070;50.794;7.054;2022-09-12T04:34:01;29.77;;;16.40;;
72924;SDS011;61070;50.794;7.054;2022-09-12T04:36:26;25.00;;;15.90;;
72924;SDS011;61070;50.794;7.054;2022-09-12T04:38:53;29.33;;;16.23;;
72924;SDS011;61070;50.794;7.054;2022-09-12T04:41:21;28.33;;;16.42;;
72924;SDS011;61070;50.794;7.054;2022-09-12T04:43:52;35.00;;;16.58;;
72924;SDS011;61070;50.794;7.054;2022-09-12T04:46:22;29.92;;;17.00;;
72924;SDS011;61070;50.794;7.054;2022-09-12T04:48:49;38.28;;;15.57;;
72924;SDS011;61070;50.794;7.054;2022-09-12T04:51:16;32.05;;;16.20;;
72924;SDS011;61070;50.794;7.054;2022-09-12T04:53:46;31.35;;;15.88;;
72924;SDS011;61070;50.794;7.054;2022-09-12T04:56:12;27.33;;;16.20;;
72924;SDS011;61070;50.794;7.054;2022-09-12T04:58:38;30.35;;;16.20;;
72924;SDS011;61070;50.794;7.054;2022-09-12T05:01:21;29.88;;;15.77;;
72924;SDS011;61070;50.794;7.054;2022-09-12T05:03:47;32.20;;;18.08;;
72924;SDS011;61070;50.794;7.054;2022-09-12T05:06:15;34.90;;;16.00;;
72924;SDS011;61070;50.794;7.054;2022-09-12T05:08:45;38.30;;;16.08;;
72924;SDS011;61070;50.794;7.054;2022-09-12T05:11:14;29.80;;;15.82;;
72924;SDS011;61070;50.794;7.054;2022-09-12T05:13:45;33.17;;;16.42;;
72924;SDS011;61070;50.794;7.054;2022-09-12T05:16:12;29.90;;;17.10;;
72924;SDS011;61070;50.794;7.054;2022-09-12T05:18:39;30.63;;;15.82;;
72924;SDS011;61070;50.794;7.054;2022-09-12T05:21:06;30.02;;;16.48;;
72924;SDS011;61070;50.794;7.054;2022-09-12T05:23:33;29.30;;;15.82;;
72924;SDS011;61070;50.794;7.054;2022-09-12T05:25:59;33.08;;;15.95;;
72924;SDS011;61070;50.794;7.054;2022-09-12T05:28:34;28.75;;;16.30;;
72924;SDS011;61070;50.794;7.054;2022-09-12T05:31:11;31.40;;;15.05;;
72924;SDS011;61070;50.794;7.054;2022-09-12T05:33:39;30.50;;;15.98;;
72924;SDS011;61070;50.794;7.054;2022-09-12T05:36:06;28.45;;;15.45;;
72924;SDS011;61070;50.794;7.054;2022-09-12T05:38:34;25.90;;;15.05;;
72924;SDS011;61070;50.794;7.054;2022-09-12T05:41:03;30.40;;;15.73;;
72924;SDS011;61070;50.794;7.054;2022-09-12T05:43:34;24.20;;;14.13;;
72924;SDS011;61070;50.794;7.054;2022-09-12T05:46:02;26.90;;;14.70;;
72924;SDS011;61070;50.794;7.054;2022-09-12T05:48:29;24.77;;;14.52;;
72924;SDS011;61070;50.794;7.054;2022-09-12T05:51:01;30.02;;;14.35;;
72924;SDS011;61070;50.794;7.054;2022-09-12T05:53:29;27.15;;;14.90;;
72924;SDS011;61070;50.794;7.054;2022-09-12T05:56:02;26.45;;;14.88;;
72924;SDS011;61070;50.794;7.054;2022-09-12T05:58:32;24.88;;;13.60;;
72924;SDS011;61070;50.794;7.054;2022-09-12T06:01:02;30.98;;;15.90;;
72924;SDS011;61070;50.794;7.054;2022-09-12T06:03:29;30.80;;;15.32;;
72924;SDS011;61070;50.794;7.054;2022-09-12T06:05:55;25.33;;;14.93;;
72924;SDS011;61070;50.794;7.054;2022-09-12T06:08:20;29.30;;;15.35;;
72924;SDS011;61070;50.794;7.054;2022-09-12T06:10:45;29.85;;;14.88;;
72924;SDS011;61070;50.794;7.054;2022-09-12T06:13:11;25.73;;;15.77;;
72924;SDS011;61070;50.794;7.054;2022-09-12T06:15:36;25.63;;;14.68;;
72924;SDS011;61070;50.794;7.054;2022-09-12T06:18:01;26.95;;;14.10;;
72924;SDS011;61070;50.794;7.054;2022-09-12T06:20:27;26.25;;;14.57;;
72924;SDS011;61070;50.794;7.054;2022-09-12T06:22:52;24.65;;;14.43;;
72924;SDS011;61070;50.794;7.054;2022-09-12T06:25:17;28.85;;;15.25;;
72924;SDS011;61070;50.794;7.054;2022-09-12T06:27:43;21.77;;;13.88;;
72924;SDS011;61070;50.794;7.054;2022-09-12T06:30:08;28.92;;;15.35;;
72924;SDS011;61070;50.794;7.054;2022-09-12T06:32:34;26.80;;;15.48;;
72924;SDS011;61070;50.794;7.054;2022-09-12T06:34:59;24.73;;;15.13;;
72924;SDS011;61070;50.794;7.054;2022-09-12T06:37:25;27.98;;;14.77;;
72924;SDS011;61070;50.794;7.054;2022-09-12T06:39:50;27.85;;;15.65;;
72924;SDS011;61070;50.794;7.054;2022-09-12T06:42:15;27.30;;;16.52;;
72924;SDS011;61070;50.794;7.054;2022-09-12T06:44:41;29.50;;;15.18;;
72924;SDS011;61070;50.794;7.054;2022-09-12T06:47:06;31.77;;;15.63;;
72924;SDS011;61070;50.794;7.054;2022-09-12T06:49:31;29.15;;;16.85;;
72924;SDS011;61070;50.794;7.054;2022-09-12T06:51:57;30.85;;;17.38;;
72924;SDS011;61070;50.794;7.054;2022-09-12T06:54:23;36.72;;;17.35;;
72924;SDS011;61070;50.794;7.054;2022-09-12T06:56:50;30.25;;;17.70;;
72924;SDS011;61070;50.794;7.054;2022-09-12T06:59:16;33.25;;;16.33;;
72924;SDS011;61070;50.794;7.054;2022-09-12T07:01:41;32.08;;;17.25;;
72924;SDS011;61070;50.794;7.054;2022-09-12T07:04:07;32.90;;;17.42;;
72924;SDS011;61070;50.794;7.054;2022-09-12T07:06:36;30.27;;;16.77;;
72924;SDS011;61070;50.794;7.054;2022-09-12T07:09:06;35.85;;;17.77;;
72924;SDS011;61070;50.794;7.054;2022-09-12T07:11:35;27.17;;;16.23;;
72924;SDS011;61070;50.794;7.054;2022-09-12T07:14:02;35.05;;;17.98;;
72924;SDS011;61070;50.794;7.054;2022-09-12T07:16:29;27.63;;;16.65;;
72924;SDS011;61070;50.794;7.054;2022-09-12T07:18:55;35.30;;;17.30;;
72924;SDS011;61070;50.794;7.054;2022-09-12T07:21:22;31.05;;;17.38;;
72924;SDS011;61070;50.794;7.054;2022-09-12T07:23:48;29.05;;;18.05;;
72924;SDS011;61070;50.794;7.054;2022-09-12T07:26:15;32.97;;;18.40;;
72924;SDS011;61070;50.794;7.054;2022-09-12T07:28:41;35.83;;;18.67;;
72924;SDS011;61070;50.794;7.054;2022-09-12T07:31:14;34.63;;;20.20;;
72924;SDS011;61070;50.794;7.054;2022-09-12T07:33:41;35.92;;;19.77;;
72924;SDS011;61070;50.794;7.054;2022-09-12T07:36:09;31.85;;;18.88;;
72924;SDS011;61070;50.794;7.054;2022-09-12T07:38:39;39.83;;;20.27;;
72924;SDS011;61070;50.794;7.054;2022-09-12T07:41:16;38.05;;;19.77;;
72924;SDS011;61070;50.794;7.054;2022-09-12T07:43:43;39.15;;;21.08;;
72924;SDS011;61070;50.794;7.054;2022-09-12T07:46:09;36.50;;;20.85;;
72924;SDS011;61070;50.794;7.054;2022-09-12T07:48:35;36.97;;;19.52;;
72924;SDS011;61070;50.794;7.054;2022-09-12T07:51:02;35.55;;;20.38;;
72924;SDS011;61070;50.794;7.054;2022-09-12T07:53:31;32.55;;;19.38;;
72924;SDS011;61070;50.794;7.054;2022-09-12T07:56:01;34.50;;;20.35;;
72924;SDS011;61070;50.794;7.054;2022-09-12T07:58:27;37.40;;;20.20;;
72924;SDS011;61070;50.794;7.054;2022-09-12T08:00:54;31.17;;;19.00;;
72924;SDS011;61070;50.794;7.054;2022-09-12T08:03:26;38.55;;;20.17;;
72924;SDS011;61070;50.794;7.054;2022-09-12T08:05:51;35.88;;;18.15;;
72924;SDS011;61070;50.794;7.054;2022-09-12T08:08:16;35.42;;;18.05;;
72924;SDS011;61070;50.794;7.054;2022-09-12T08:10:42;31.67;;;17.58;;
72924;SDS011;61070;50.794;7.054;2022-09-12T08:13:07;27.13;;;17.17;;
72924;SDS011;61070;50.794;7.054;2022-09-12T08:15:33;26.88;;;15.88;;
72924;SDS011;61070;50.794;7.054;2022-09-12T08:17:58;30.10;;;15.73;;
72924;SDS011;61070;50.794;7.054;2022-09-12T08:20:24;28.50;;;15.20;;
72924;SDS011;61070;50.794;7.054;2022-09-12T08:22:49;28.10;;;15.80;;
72924;SDS011;61070;50.794;7.054;2022-09-12T08:25:15;27.38;;;16.02;;
72924;SDS011;61070;50.794;7.054;2022-09-12T08:27:41;31.80;;;16.20;;
72924;SDS011;61070;50.794;7.054;2022-09-12T08:30:07;22.23;;;14.43;;
72924;SDS011;61070;50.794;7.054;2022-09-12T08:32:33;27.25;;;14.57;;
72924;SDS011;61070;50.794;7.054;2022-09-12T08:34:58;22.05;;;14.05;;
72924;SDS011;61070;50.794;7.054;2022-09-12T08:37:24;20.63;;;12.60;;
72924;SDS011;61070;50.794;7.054;2022-09-12T08:39:55;21.15;;;12.95;;
72924;SDS011;61070;50.794;7.054;2022-09-12T08:42:24;20.05;;;12.48;;
72924;SDS011;61070;50.794;7.054;2022-09-12T08:45:14;23.67;;;12.82;;
72924;SDS011;61070;50.794;7.054;2022-09-12T08:47:44;20.67;;;12.85;;
72924;SDS011;61070;50.794;7.054;2022-09-12T08:50:13;21.98;;;13.00;;
72924;SDS011;61070;50.794;7.054;2022-09-12T08:55:12;19.57;;;11.43;;
72924;SDS011;61070;50.794;7.054;2022-09-12T08:57:42;17.10;;;11.25;;
72924;SDS011;61070;50.794;7.054;2022-09-12T09:00:11;19.33;;;11.77;;
72924;SDS011;61070;50.794;7.054;2022-09-12T09:02:58;17.10;;;10.13;;
72924;SDS011;61070;50.794;7.054;2022-09-12T09:16:50;15.60;;;9.48;;
72924;SDS011;61070;50.794;7.054;2022-09-12T09:19:25;17.85;;;9.65;;
72924;SDS011;61070;50.794;7.054;2022-09-12T09:22:01;16.58;;;9.25;;
72924;SDS011;61070;50.794;7.054;2022-09-12T09:24:32;12.50;;;9.15;;
72924;SDS011;61070;50.794;7.054;2022-09-12T09:27:05;14.38;;;7.97;;
72924;SDS011;61070;50.794;7.054;2022-09-12T09:29:39;12.32;;;8.20;;
72924;SDS011;61070;50.794;7.054;2022-09-12T09:32:14;12.85;;;8.30;;
72924;SDS011;61070;50.794;7.054;2022-09-12T09:34:42;18.08;;;9.27;;
72924;SDS011;61070;50.794;7.054;2022-09-12T09:37:15;16.63;;;9.13;;
72924;SDS011;61070;50.794;7.054;2022-09-12T09:42:31;11.13;;;8.05;;
72924;SDS011;61070;50.794;7.054;2022-09-12T09:45:02;10.40;;;6.82;;
72924;SDS011;61070;50.794;7.054;2022-09-12T09:47:35;11.15;;;7.47;;
72924;SDS011;61070;50.794;7.054;2022-09-12T09:50:01;12.38;;;7.40;;
72924;SDS011;61070;50.794;7.054;2022-09-12T09:52:28;9.43;;;6.18;;
72924;SDS011;61070;50.794;7.054;2022-09-12T09:54:56;9.77;;;7.00;;
72924;SDS011;61070;50.794;7.054;2022-09-12T09:59:58;9.63;;;6.55;;
72924;SDS011;61070;50.794;7.054;2022-09-12T10:05:58;11.63;;;7.22;;
72924;SDS011;61070;50.794;7.054;2022-09-12T10:08:27;9.15;;;5.30;;
72924;SDS011;61070;50.794;7.054;2022-09-12T10:11:01;8.82;;;5.32;;
72924;SDS011;61070;50.794;7.054;2022-09-12T10:13:30;8.97;;;5.83;;
72924;SDS011;61070;50.794;7.054;2022-09-12T10:16:01;7.20;;;5.22;;
72924;SDS011;61070;50.794;7.054;2022-09-12T10:18:39;9.05;;;5.25;;
72924;SDS011;61070;50.794;7.054;2022-09-12T10:21:26;6.03;;;5.22;;
72924;SDS011;61070;50.794;7.054;2022-09-12T10:26:24;8.60;;;5.10;;
72924;SDS011;61070;50.794;7.054;2022-09-12T10:28:54;7.75;;;4.90;;
72924;SDS011;61070;50.794;7.054;2022-09-12T10:31:24;6.57;;;4.53;;
72924;SDS011;61070;50.794;7.054;2022-09-12T10:33:53;7.88;;;5.07;;
72924;SDS011;61070;50.794;7.054;2022-09-12T10:36:22;8.85;;;4.32;;
72924;SDS011;61070;50.794;7.054;2022-09-12T10:38:52;9.70;;;5.10;;
72924;SDS011;61070;50.794;7.054;2022-09-12T10:41:20;7.40;;;5.05;;
72924;SDS011;61070;50.794;7.054;2022-09-12T10:43:46;8.52;;;4.95;;
72924;SDS011;61070;50.794;7.054;2022-09-12T10:48:40;8.48;;;4.72;;
72924;SDS011;61070;50.794;7.054;2022-09-12T10:51:11;6.10;;;4.88;;
72924;SDS011;61070;50.794;7.054;2022-09-12T10:53:52;6.13;;;4.30;;
72924;SDS011;61070;50.794;7.054;2022-09-12T10:56:32;7.82;;;4.15;;
72924;SDS011;61070;50.794;7.054;2022-09-12T11:01:47;5.63;;;4.18;;
72924;SDS011;61070;50.794;7.054;2022-09-12T11:07:23;6.72;;;4.07;;
72924;SDS011;61070;50.794;7.054;2022-09-12T11:20:59;4.83;;;3.43;;
72924;SDS011;61070;50.794;7.054;2022-09-12T11:34:36;6.45;;;4.20;;
72924;SDS011;61070;50.794;7.054;2022-09-12T11:40:16;7.25;;;4.28;;
72924;SDS011;61070;50.794;7.054;2022-09-12T11:42:53;5.70;;;3.58;;
72924;SDS011;61070;50.794;7.054;2022-09-12T11:45:40;5.13;;;3.58;;
72924;SDS011;61070;50.794;7.054;2022-09-12T11:48:10;5.32;;;2.47;;
72924;SDS011;61070;50.794;7.054;2022-09-12T11:50:57;3.60;;;2.75;;
72924;SDS011;61070;50.794;7.054;2022-09-12T11:53:27;4.67;;;2.80;;
72924;SDS011;61070;50.794;7.054;2022-09-12T11:56:08;3.75;;;3.13;;
72924;SDS011;61070;50.794;7.054;2022-09-12T11:58:41;6.30;;;2.70;;
72924;SDS011;61070;50.794;7.054;2022-09-12T12:01:16;3.03;;;2.42;;
72924;SDS011;61070;50.794;7.054;2022-09-12T12:03:48;2.58;;;2.30;;
72924;SDS011;61070;50.794;7.054;2022-09-12T12:09:20;4.10;;;1.90;;
72924;SDS011;61070;50.794;7.054;2022-09-12T12:11:50;3.45;;;2.15;;
72924;SDS011;61070;50.794;7.054;2022-09-12T12:17:16;1.98;;;1.52;;
72924;SDS011;61070;50.794;7.054;2022-09-12T12:19:44;2.60;;;2.22;;
72924;SDS011;61070;50.794;7.054;2022-09-12T12:22:21;2.97;;;2.20;;
72924;SDS011;61070;50.794;7.054;2022-09-12T12:27:51;5.43;;;2.22;;
72924;SDS011;61070;50.794;7.054;2022-09-12T12:35:40;3.22;;;2.92;;
72924;SDS011;61070;50.794;7.054;2022-09-12T12:43:46;5.43;;;2.95;;
72924;SDS011;61070;50.794;7.054;2022-09-12T12:46:15;3.15;;;2.70;;
72924;SDS011;61070;50.794;7.054;2022-09-12T12:51:38;3.10;;;2.75;;
72924;SDS011;61070;50.794;7.054;2022-09-12T12:59:43;3.28;;;2.70;;
72924;SDS011;61070;50.794;7.054;2022-09-12T13:02:37;3.45;;;2.75;;
72924;SDS011;61070;50.794;7.054;2022-09-12T13:05:13;6.40;;;2.83;;
72924;SDS011;61070;50.794;7.054;2022-09-12T13:07:42;5.05;;;2.85;;
72924;SDS011;61070;50.794;7.054;2022-09-12T13:10:18;3.42;;;2.95;;
72924;SDS011;61070;50.794;7.054;2022-09-12T13:12:47;5.80;;;3.38;;
72924;SDS011;61070;50.794;7.054;2022-09-12T13:21:09;4.97;;;3.15;;
72924;SDS011;61070;50.794;7.054;2022-09-12T13:23:40;3.03;;;2.70;;
72924;SDS011;61070;50.794;7.054;2022-09-12T13:26:23;5.13;;;3.38;;
72924;SDS011;61070;50.794;7.054;2022-09-12T13:28:49;4.78;;;3.20;;
72924;SDS011;61070;50.794;7.054;2022-09-12T13:31:33;5.15;;;3.40;;
72924;SDS011;61070;50.794;7.054;2022-09-12T13:33:59;4.20;;;3.80;;
72924;SDS011;61070;50.794;7.054;2022-09-12T13:36:32;6.40;;;3.20;;
72924;SDS011;61070;50.794;7.054;2022-09-12T13:39:23;6.00;;;3.17;;
72924;SDS011;61070;50.794;7.054;2022-09-12T13:44:53;3.67;;;2.92;;
72924;SDS011;61070;50.794;7.054;2022-09-12T13:49:53;5.28;;;3.33;;
72924;SDS011;61070;50.794;7.054;2022-09-12T13:52:21;8.68;;;3.22;;
72924;SDS011;61070;50.794;7.054;2022-09-12T13:54:50;6.83;;;3.30;;
72924;SDS011;61070;50.794;7.054;2022-09-12T14:00:22;4.40;;;3.25;;
72924;SDS011;61070;50.794;7.054;2022-09-12T14:02:48;4.38;;;3.28;;
72924;SDS011;61070;50.794;7.054;2022-09-12T14:05:24;7.95;;;3.42;;
72924;SDS011;61070;50.794;7.054;2022-09-12T14:10:29;5.18;;;3.30;;
72924;SDS011;61070;50.794;7.054;2022-09-12T14:12:57;6.50;;;2.97;;
72924;SDS011;61070;50.794;7.054;2022-09-12T14:15:29;6.97;;;3.67;;
72924;SDS011;61070;50.794;7.054;2022-09-12T14:18:01;4.38;;;3.55;;
72924;SDS011;61070;50.794;7.054;2022-09-12T14:20:29;3.90;;;3.22;;
72924;SDS011;61070;50.794;7.054;2022-09-12T14:22:58;6.72;;;3.08;;
72924;SDS011;61070;50.794;7.054;2022-09-12T14:25:27;4.65;;;3.15;;
72924;SDS011;61070;50.794;7.054;2022-09-12T14:28:01;6.95;;;3.92;;
72924;SDS011;61070;50.794;7.054;2022-09-12T14:30:27;5.70;;;3.10;;
72924;SDS011;61070;50.794;7.054;2022-09-12T14:35:37;3.53;;;3.03;;
72924;SDS011;61070;50.794;7.054;2022-09-12T14:38:05;5.38;;;3.10;;
72924;SDS011;61070;50.794;7.054;2022-09-12T14:40:39;5.90;;;3.28;;
72924;SDS011;61070;50.794;7.054;2022-09-12T14:43:31;7.93;;;3.50;;
72924;SDS011;61070;50.794;7.054;2022-09-12T14:46:02;5.55;;;2.97;;
72924;SDS011;61070;50.794;7.054;2022-09-12T14:48:31;7.97;;;3.28;;
72924;SDS011;61070;50.794;7.054;2022-09-12T14:51:00;5.43;;;2.90;;
72924;SDS011;61070;50.794;7.054;2022-09-12T14:53:30;4.65;;;2.72;;
72924;SDS011;61070;50.794;7.054;2022-09-12T14:56:04;4.78;;;2.80;;
72924;SDS011;61070;50.794;7.054;2022-09-12T14:58:32;4.57;;;3.08;;
72924;SDS011;61070;50.794;7.054;2022-09-12T15:06:17;4.68;;;2.80;;
72924;SDS011;61070;50.794;7.054;2022-09-12T15:08:46;7.23;;;2.50;;
72924;SDS011;61070;50.794;7.054;2022-09-12T15:11:11;6.68;;;3.17;;
72924;SDS011;61070;50.794;7.054;2022-09-12T15:13:38;8.93;;;3.25;;
72924;SDS011;61070;50.794;7.054;2022-09-12T15:16:06;3.83;;;3.30;;
72924;SDS011;61070;50.794;7.054;2022-09-12T15:18:33;4.05;;;3.05;;
72924;SDS011;61070;50.794;7.054;2022-09-12T15:21:03;6.75;;;2.42;;
72924;SDS011;61070;50.794;7.054;2022-09-12T15:23:40;4.22;;;2.63;;
72924;SDS011;61070;50.794;7.054;2022-09-12T15:26:06;3.25;;;2.60;;
72924;SDS011;61070;50.794;7.054;2022-09-12T15:28:34;2.45;;;2.00;;
72924;SDS011;61070;50.794;7.054;2022-09-12T15:31:02;4.60;;;2.70;;
72924;SDS011;61070;50.794;7.054;2022-09-12T15:33:31;4.85;;;2.03;;
72924;SDS011;61070;50.794;7.054;2022-09-12T15:35:56;3.20;;;2.22;;
72924;SDS011;61070;50.794;7.054;2022-09-12T15:38:21;4.50;;;2.60;;
72924;SDS011;61070;50.794;7.054;2022-09-12T15:40:50;4.85;;;2.08;;
72924;SDS011;61070;50.794;7.054;2022-09-12T15:43:18;4.43;;;2.17;;
72924;SDS011;61070;50.794;7.054;2022-09-12T15:45:43;7.85;;;2.40;;
72924;SDS011;61070;50.794;7.054;2022-09-12T15:48:10;3.55;;;2.33;;
72924;SDS011;61070;50.794;7.054;2022-09-12T15:50:37;2.85;;;2.15;;
72924;SDS011;61070;50.794;7.054;2022-09-12T15:53:03;1.88;;;1.63;;
72924;SDS011;61070;50.794;7.054;2022-09-12T15:55:29;4.60;;;1.73;;
72924;SDS011;61070;50.794;7.054;2022-09-12T15:57:56;7.30;;;1.70;;
72924;SDS011;61070;50.794;7.054;2022-09-12T16:00:22;2.58;;;1.88;;
72924;SDS011;61070;50.794;7.054;2022-09-12T16:02:48;3.70;;;1.92;;
72924;SDS011;61070;50.794;7.054;2022-09-12T16:05:21;2.35;;;2.08;;
72924;SDS011;61070;50.794;7.054;2022-09-12T16:07:49;3.05;;;1.80;;
72924;SDS011;61070;50.794;7.054;2022-09-12T16:10:18;2.78;;;1.63;;
72924;SDS011;61070;50.794;7.054;2022-09-12T16:12:46;5.28;;;1.90;;
72924;SDS011;61070;50.794;7.054;2022-09-12T16:15:13;4.82;;;1.65;;
72924;SDS011;61070;50.794;7.054;2022-09-12T16:17:41;3.05;;;1.73;;
72924;SDS011;61070;50.794;7.054;2022-09-12T16:20:07;2.42;;;1.67;;
72924;SDS011;61070;50.794;7.054;2022-09-12T16:22:34;4.97;;;1.40;;
72924;SDS011;61070;50.794;7.054;2022-09-12T16:25:00;3.90;;;1.58;;
72924;SDS011;61070;50.794;7.054;2022-09-12T16:27:25;5.13;;;1.63;;
72924;SDS011;61070;50.794;7.054;2022-09-12T16:29:51;2.53;;;1.40;;
72924;SDS011;61070;50.794;7.054;2022-09-12T16:32:16;1.50;;;1.40;;
72924;SDS011;61070;50.794;7.054;2022-09-12T16:34:42;3.85;;;1.55;;
72924;SDS011;61070;50.794;7.054;2022-09-12T16:37:07;2.17;;;1.60;;
72924;SDS011;61070;50.794;7.054;2022-09-12T16:39:32;5.15;;;1.63;;
72924;SDS011;61070;50.794;7.054;2022-09-12T16:41:58;4.50;;;1.10;;
72924;SDS011;61070;50.794;7.054;2022-09-12T16:44:23;2.33;;;1.30;;
72924;SDS011;61070;50.794;7.054;2022-09-12T16:46:49;2.90;;;1.30;;
72924;SDS011;61070;50.794;7.054;2022-09-12T16:49:14;2.78;;;1.15;;
72924;SDS011;61070;50.794;7.054;2022-09-12T16:51:39;1.43;;;1.20;;
72924;SDS011;61070;50.794;7.054;2022-09-12T16:54:08;1.40;;;1.30;;
72924;SDS011;61070;50.794;7.054;2022-09-12T16:56:34;3.55;;;1.10;;
72924;SDS011;61070;50.794;7.054;2022-09-12T16:58:59;1.53;;;1.10;;
72924;SDS011;61070;50.794;7.054;2022-09-12T17:01:24;1.30;;;1.10;;
72924;SDS011;61070;50.794;7.054;2022-09-12T17:03:51;6.32;;;1.00;;
72924;SDS011;61070;50.794;7.054;2022-09-12T17:08:47;2.38;;;1.40;;
72924;SDS011;61070;50.794;7.054;2022-09-12T17:11:19;2.67;;;1.35;;
72924;SDS011;61070;50.794;7.054;2022-09-12T17:13:47;2.72;;;1.65;;
72924;SDS011;61070;50.794;7.054;2022-09-12T17:16:13;2.97;;;1.65;;
72924;SDS011;61070;50.794;7.054;2022-09-12T17:18:39;4.57;;;1.48;;
72924;SDS011;61070;50.794;7.054;2022-09-12T17:21:05;1.70;;;1.23;;
72924;SDS011;61070;50.794;7.054;2022-09-12T17:23:31;3.05;;;1.50;;
72924;SDS011;61070;50.794;7.054;2022-09-12T17:25:56;4.40;;;1.55;;
72924;SDS011;61070;50.794;7.054;2022-09-12T17:28:22;1.95;;;1.38;;
72924;SDS011;61070;50.794;7.054;2022-09-12T17:30:53;7.72;;;1.52;;